Grande Europa — ICGE — position and weather

sailwx.info

Track history (hours):
 
Tides and Currents Weather Stations Pressure Air Temp Water Temp Dewpoint Dewpoint Depression Visibility Wind Speed Wind Dir Waves Ship Positions

Grande Europa

Last reported at 2014-Nov-24 10:14 UTC. Time now 2014-Nov-24 12:09 UTC.
Position N 39°16' E 001°09'.

Length 183 m; draft 8.2 m.

Type: Cargo ship. MMSI: 247206000.

Date/timePositionNaut miles runAvg speedWind from/ knotsBaromVisibWave heightAir tempDewpointWater temp
2014-Nov-24 10:14N 39°16' E 001°09'1015.1
2014-Nov-24 09:33N 39°17' E 000°55'1817.8
2014-Nov-24 08:33N 39°15' E 001°18'1817.8
2014-Nov-24 07:33N 39°12' E 001°41'1817.9
2014-Nov-24 06:33N 39°10' E 002°04'1817.8
2014-Nov-24 05:33N 39°07' E 002°26'1817.6
2014-Nov-24 04:33N 39°05' E 002°49'1717.4
2014-Nov-24 03:33N 39°03' E 003°11'1717.3
2014-Nov-24 02:33N 39°02' E 003°33'1716.8
2014-Nov-24 01:33N 39°01' E 003°55'13118.5
2014-Nov-23 18:26N 38°52' E 006°43'2115.5
2014-Nov-23 17:06N 38°50' E 007°10'1017.3
2014-Nov-23 16:31N 38°50' E 007°23'2018.0
2014-Nov-23 15:24N 38°48' E 007°49'1819.4
2014-Nov-23 14:28N 38°46' E 008°12'1617.1
2014-Nov-23 13:31N 38°46' E 008°32'1818.7
2014-Nov-23 12:33N 38°48' E 008°56'1918.8
2014-Nov-23 11:33N 38°54' E 009°18'2417.0
2014-Nov-23 10:09N 39°02' E 009°47'7816.9
2014-Nov-23 05:33N 39°33' E 011°20'11218.7
2014-Nov-22 23:33N 40°16' E 013°35'1918.9
2014-Nov-22 22:33N 40°23' E 013°58'1919.0
2014-Nov-22 21:34N 40°30' E 014°21'17 1.2
2014-Nov-22 07:32N 40°32' E 014°42'  
2014-Nov-16 11:10N 36°20' E 027°02'1117.7
2014-Nov-16 10:32N 36°27' E 026°52'1717.6
2014-Nov-16 09:33N 36°39' E 026°36'1717.4
2014-Nov-16 08:33N 36°51' E 026°21'1717.3
2014-Nov-16 07:33N 37°05' E 026°08'1818.2
2014-Nov-16 06:33N 37°21' E 025°56'2017.6
2014-Nov-16 05:25N 37°40' E 025°49'47 1.2
2014-Nov-14 15:30N 38°15' E 025°10'2118.1
2014-Nov-14 14:19N 38°03' E 024°48'3117.6
2014-Nov-14 12:33N 37°43' E 024°18'1917.5
2014-Nov-14 11:28N 37°27' E 024°04'  
Track history (hours):
 
Tides and Currents Weather Stations Pressure Air Temp Water Temp Dewpoint Dewpoint Depression Visibility Wind Speed Wind Dir Waves Ship Positions

Grande Europa

Last reported at 2014-Nov-24 10:14 UTC. Time now 2014-Nov-24 12:09 UTC.
Position N 39°16' E 001°09'.

Length 183 m; draft 8.2 m.

Type: Cargo ship. MMSI: 247206000.

Date/timePositionNaut miles runAvg speedWind from/ knotsBaromVisibWave heightAir tempDewpointWater temp
2014-Nov-24 10:14N 39°16' E 001°09'1015.1
2014-Nov-24 09:33N 39°17' E 000°55'1817.8
2014-Nov-24 08:33N 39°15' E 001°18'1817.8
2014-Nov-24 07:33N 39°12' E 001°41'1817.9
2014-Nov-24 06:33N 39°10' E 002°04'1817.8
2014-Nov-24 05:33N 39°07' E 002°26'1817.6
2014-Nov-24 04:33N 39°05' E 002°49'1717.4
2014-Nov-24 03:33N 39°03' E 003°11'1717.3
2014-Nov-24 02:33N 39°02' E 003°33'1716.8
2014-Nov-24 01:33N 39°01' E 003°55'13118.5
2014-Nov-23 18:26N 38°52' E 006°43'2115.5
2014-Nov-23 17:06N 38°50' E 007°10'1017.3
2014-Nov-23 16:31N 38°50' E 007°23'2018.0
2014-Nov-23 15:24N 38°48' E 007°49'1819.4
2014-Nov-23 14:28N 38°46' E 008°12'1617.1
2014-Nov-23 13:31N 38°46' E 008°32'1818.7
2014-Nov-23 12:33N 38°48' E 008°56'1918.8
2014-Nov-23 11:33N 38°54' E 009°18'2417.0
2014-Nov-23 10:09N 39°02' E 009°47'7816.9
2014-Nov-23 05:33N 39°33' E 011°20'11218.7
2014-Nov-22 23:33N 40°16' E 013°35'1918.9
2014-Nov-22 22:33N 40°23' E 013°58'1919.0
2014-Nov-22 21:34N 40°30' E 014°21'17 1.2
2014-Nov-22 07:32N 40°32' E 014°42'  
2014-Nov-16 11:10N 36°20' E 027°02'1117.7
2014-Nov-16 10:32N 36°27' E 026°52'1717.6
2014-Nov-16 09:33N 36°39' E 026°36'1717.4
2014-Nov-16 08:33N 36°51' E 026°21'1717.3
2014-Nov-16 07:33N 37°05' E 026°08'1818.2
2014-Nov-16 06:33N 37°21' E 025°56'2017.6
2014-Nov-16 05:25N 37°40' E 025°49'47 1.2
2014-Nov-14 15:30N 38°15' E 025°10'2118.1
2014-Nov-14 14:19N 38°03' E 024°48'3117.6
2014-Nov-14 12:33N 37°43' E 024°18'1917.5
2014-Nov-14 11:28N 37°27' E 024°04'  

Dump ship's entire track history